Current Weather

Tahoua

Tahoua, Niger (DRRT)

Report from: Monday, May 23, 2022 9:00 AM WAT
Current time: Monday, May 23, 2022 9:29 AM WAT

Nearby weather
Weather history
Weather forecast

Temperature28.0°C (82.4°F)
Heat index29.2°C (84.5°F)
Dew point18.0°C (64.4°F)
Winds 20 kts (10.3 m/s, 23 mph) West-Southwest (240°)
Visibility3.7 mi. (6 km)
Altimeter29.97 in.Hg (1015 mB)
Relative humidity55 %
Density altitude1,719 ft. (524 m)
Flight conditions Marginal Visual Meteorological Conditions
Raw dataDRRT 230800Z 24020KT 6000 NSC 28/18 Q1015
An error has occurred. This application may no longer respond until reloaded. Reload 🗙